Time;durP1;ratioP1;P1;durP2;ratioP2;P2;SDS_P1;SDS_P2;PMS_P1;PMS_P2;Temp;Humidity;BMP_temperature;BMP_pressure;BME280_temperature;BME280_humidity;BME280_pressure;Samples;Min_cycle;Max_cycle;Signal;HPM_P1;HPM_P2
2021/08/02 00:00:58;;;;;;;22.17;11.15;;;;;;;16.41;77.94;100969.88;5110561;27;20351;-66
2021/08/02 00:03:31;;;;;;;19.88;10.98;;;;;;;16.43;77.97;100962.47;5110240;28;20040;-65
2021/08/02 00:05:58;;;;;;;21.50;11.20;;;;;;;16.43;77.82;100958.97;5109511;28;20041;-66
2021/08/02 00:08:31;;;;;;;21.60;11.82;;;;;;;16.53;77.08;100956.00;5108859;28;20044;-66
2021/08/02 00:10:59;;;;;;;21.77;11.68;;;;;;;16.45;77.81;100963.13;5108903;28;20075;-64
2021/08/02 00:13:30;;;;;;;23.80;10.88;;;;;;;16.40;77.41;100954.00;5110143;28;20119;-65
2021/08/02 00:16:00;;;;;;;21.35;11.23;;;;;;;16.76;76.30;100962.03;5109150;28;20055;-66
2021/08/02 00:18:29;;;;;;;24.30;11.07;;;;;;;16.60;76.96;100962.25;5108877;28;20079;-65
2021/08/02 00:21:00;;;;;;;18.42;11.05;;;;;;;16.79;75.97;100968.84;5110062;28;20032;-66
2021/08/02 00:23:34;;;;;;;20.30;10.90;;;;;;;16.70;76.48;100968.16;5109544;28;20047;-66
2021/08/02 00:26:04;;;;;;;19.88;10.85;;;;;;;16.53;76.93;100970.22;5109697;28;20040;-66
2021/08/02 00:28:33;;;;;;;23.30;11.65;;;;;;;16.61;76.28;100970.13;5109759;28;20054;-65
2021/08/02 00:31:00;;;;;;;22.52;10.85;;;;;;;16.58;76.33;100970.47;5109924;28;20043;-65
2021/08/02 00:33:27;;;;;;;21.80;11.15;;;;;;;16.50;76.29;100982.13;5108203;28;20640;-65
2021/08/02 00:36:07;;;;;;;19.77;10.15;;;;;;;16.66;75.86;100967.72;5109824;28;20047;-65
2021/08/02 00:38:45;;;;;;;16.33;9.88;;;;;;;16.69;76.00;100975.34;5108998;28;20089;-65
2021/08/02 00:41:19;;;;;;;24.52;10.55;;;;;;;16.75;74.97;100970.25;5109849;28;20488;-65
2021/08/02 00:44:27;;;;;;;19.17;10.40;;;;;;;16.62;75.14;100971.75;5109528;28;20039;-65
2021/08/02 00:47:03;;;;;;;;;;;;;;;16.56;75.04;100967.16;5109739;28;20040;-65
2021/08/02 00:49:31;;;;;;;19.42;10.30;;;;;;;16.50;75.69;100970.59;5109416;28;19920;-65
2021/08/02 00:52:01;;;;;;;17.88;9.95;;;;;;;16.43;75.97;100965.16;5109374;28;20044;-65
2021/08/02 00:54:28;;;;;;;22.98;10.20;;;;;;;16.41;76.48;100977.06;5108925;28;20447;-64
2021/08/02 00:56:58;;;;;;;21.00;10.40;;;;;;;16.54;75.39;100979.09;5109198;28;20050;-65
2021/08/02 00:59:28;;;;;;;21.00;9.38;;;;;;;16.45;76.02;100975.69;5108355;28;20060;-64
2021/08/02 01:01:57;;;;;;;20.05;10.18;;;;;;;16.56;75.33;100972.53;5109079;28;20052;-66
2021/08/02 01:04:24;;;;;;;17.67;10.18;;;;;;;16.40;76.21;100978.91;5106182;28;20082;-65
2021/08/02 01:06:53;;;;;;;19.48;10.05;;;;;;;16.45;75.95;100984.53;5109163;28;20043;-66
2021/08/02 01:09:24;;;;;;;19.13;9.57;;;;;;;16.37;76.75;100978.44;5108735;28;20032;-67
2021/08/02 01:11:54;;;;;;;19.85;9.07;;;;;;;16.33;76.64;100974.50;5098298;28;20388;-66
2021/08/02 01:14:23;;;;;;;18.55;9.60;;;;;;;16.35;76.56;100970.59;5095490;28;20410;-66
2021/08/02 01:16:52;;;;;;;17.60;9.45;;;;;;;16.30;76.25;100971.19;5094173;28;20072;-66
2021/08/02 01:19:21;;;;;;;17.77;9.43;;;;;;;16.22;76.71;100973.13;5095151;28;20043;-66
2021/08/02 01:21:56;;;;;;;21.65;10.02;;;;;;;16.23;76.65;100978.28;5095293;28;20390;-66
2021/08/02 01:24:25;;;;;;;18.15;9.02;;;;;;;16.31;76.42;100974.69;5093570;28;20066;-65
2021/08/02 01:27:33;;;;;;;18.63;9.00;;;;;;;16.36;75.99;100971.47;5095147;28;20054;-66
2021/08/02 01:30:22;;;;;;;18.23;8.40;;;;;;;16.37;75.73;100967.75;5095034;28;20443;-66
2021/08/02 01:32:54;;;;;;;19.27;8.45;;;;;;;16.26;76.06;100972.56;5093445;28;20044;-66
2021/08/02 01:35:21;;;;;;;19.17;8.40;;;;;;;16.23;76.07;100967.59;5095202;28;20040;-66
2021/08/02 01:37:49;;;;;;;17.88;8.98;;;;;;;16.34;75.96;100976.16;5094541;28;20044;-66
2021/08/02 01:40:20;;;;;;;20.27;8.70;;;;;;;16.28;75.92;100969.69;5094963;28;20047;-66
2021/08/02 01:42:46;;;;;;;17.25;8.68;;;;;;;16.17;76.00;100972.84;5094670;28;20074;-66
2021/08/02 01:45:19;;;;;;;18.77;8.88;;;;;;;16.15;76.06;100978.38;5094099;28;20044;-66
2021/08/02 01:48:09;;;;;;;19.13;8.68;;;;;;;16.11;76.17;100975.22;5094695;28;20051;-66
2021/08/02 01:50:54;;;;;;;18.42;8.38;;;;;;;16.12;76.28;100973.41;5093606;28;20047;-66
2021/08/02 01:53:50;;;;;;;16.90;7.93;;;;;;;16.15;76.11;100972.19;5094034;28;20044;-66
2021/08/02 01:56:21;;;;;;;16.23;7.85;;;;;;;16.17;76.07;100980.88;5094691;28;20052;-66
2021/08/02 01:59:00;;;;;;;17.70;6.88;;;;;;;16.34;74.49;100989.56;5094210;28;20044;-66
2021/08/02 02:01:45;;;;;;;19.30;6.15;;;;;;;16.28;73.51;100983.06;5094598;28;20043;-66
2021/08/02 02:04:14;;;;;;;16.05;5.25;;;;;;;16.29;72.82;100979.41;5094216;28;20119;-66
2021/08/02 02:06:46;;;;;;;15.77;5.07;;;;;;;16.19;72.60;100974.34;5093207;28;20115;-66
2021/08/02 02:09:17;;;;;;;13.05;4.75;;;;;;;16.12;72.14;100976.09;5094059;28;20089;-66
2021/08/02 02:11:49;;;;;;;12.70;4.80;;;;;;;15.99;72.23;100974.06;5094275;28;20043;-66
2021/08/02 02:14:29;;;;;;;18.77;5.00;;;;;;;16.06;72.50;100985.69;5093867;28;20044;-66
2021/08/02 02:17:00;;;;;;;20.25;4.65;;;;;;;16.08;73.25;100988.16;5094405;28;20051;-66
2021/08/02 02:19:33;;;;;;;14.63;4.55;;;;;;;16.20;72.16;100988.53;5094019;28;20496;-66
2021/08/02 02:22:07;;;;;;;12.80;4.07;;;;;;;16.10;71.65;100986.97;5092275;28;20075;-66
2021/08/02 02:24:36;;;;;;;10.55;4.03;;;;;;;16.22;71.37;100999.88;5093922;28;20381;-66
2021/08/02 02:27:07;;;;;;;14.48;4.30;;;;;;;16.09;71.52;101005.88;5092948;28;20086;-66
2021/08/02 02:29:36;;;;;;;11.90;3.40;;;;;;;16.12;70.26;100992.16;5092842;28;20074;-65
2021/08/02 02:32:05;;;;;;;11.65;3.38;;;;;;;15.89;70.44;101000.22;5093903;28;20485;-65
2021/08/02 02:34:36;;;;;;;15.80;2.90;;;;;;;15.92;69.40;101002.56;5093947;28;20044;-65
2021/08/02 02:37:06;;;;;;;14.27;2.80;;;;;;;15.83;69.68;101004.47;5092089;28;20505;-65
2021/08/02 02:39:36;;;;;;;12.50;3.20;;;;;;;15.84;69.17;100994.59;5092865;28;20044;-65
2021/08/02 02:42:05;;;;;;;11.98;3.10;;;;;;;15.76;69.41;100998.19;5093768;28;20067;-65
2021/08/02 02:44:36;;;;;;;14.35;3.33;;;;;;;15.90;69.38;100994.72;5093709;28;20043;-65
2021/08/02 02:47:05;;;;;;;;;;;;;;;15.80;70.23;100979.94;5094224;28;20504;-65
2021/08/02 02:49:34;;;;;;;19.10;3.50;;;;;;;15.83;70.65;100982.25;5093328;28;20010;-65
2021/08/02 02:52:03;;;;;;;16.85;3.60;;;;;;;15.86;70.31;100984.53;5093157;28;20043;-66
2021/08/02 02:54:32;;;;;;;18.33;3.70;;;;;;;15.82;70.25;100988.59;5083968;28;20044;-66
2021/08/02 02:57:01;;;;;;;10.82;3.60;;;;;;;15.83;70.62;100974.22;5079293;28;20143;-65
2021/08/02 02:59:30;;;;;;;11.00;3.97;;;;;;;15.88;70.25;100980.69;5091399;28;20437;-65
2021/08/02 03:02:00;;;;;;;12.77;4.07;;;;;;;15.83;70.56;100990.28;5093343;28;20068;-65
2021/08/02 03:04:32;;;;;;;15.30;3.95;;;;;;;15.81;70.97;100986.94;5091750;28;20097;-65
2021/08/02 03:07:01;;;;;;;11.88;4.35;;;;;;;15.85;71.16;100990.91;5092166;28;20068;-65
2021/08/02 03:09:35;;;;;;;12.68;4.10;;;;;;;15.85;71.30;100982.91;5091703;28;20040;-65
2021/08/02 03:12:05;;;;;;;11.00;3.65;;;;;;;15.85;71.50;100993.59;5093144;28;20117;-65
2021/08/02 03:14:33;;;;;;;14.75;4.53;;;;;;;15.90;71.20;100994.72;5093083;28;20044;-65
2021/08/02 03:17:00;;;;;;;13.68;4.70;;;;;;;15.88;71.81;100996.75;5093334;28;20078;-65
2021/08/02 03:19:27;;;;;;;16.40;4.22;;;;;;;15.92;72.13;101000.69;5093169;28;20039;-65
2021/08/02 03:21:53;;;;;;;19.23;5.47;;;;;;;15.94;72.49;100992.50;5093338;28;20036;-65
2021/08/02 03:24:30;;;;;;;22.48;5.82;;;;;;;15.82;73.33;101001.97;5069371;28;20075;-66
2021/08/02 03:27:02;;;;;;;18.10;6.15;;;;;;;15.87;73.50;100999.59;5071597;28;20094;-65
2021/08/02 03:29:34;;;;;;;21.50;6.70;;;;;;;15.90;73.47;100999.22;5070990;28;20076;-65
2021/08/02 03:32:06;;;;;;;14.00;5.60;;;;;;;15.90;72.64;100994.72;5071412;28;20041;-65
2021/08/02 03:34:34;;;;;;;12.65;5.32;;;;;;;15.88;72.06;100988.72;5072122;28;20044;-66
2021/08/02 03:37:05;;;;;;;16.70;4.57;;;;;;;15.89;71.43;101000.22;5074740;28;20051;-65
2021/08/02 03:39:32;;;;;;;14.88;4.93;;;;;;;15.84;71.86;100991.91;5092809;28;20073;-66
2021/08/02 03:42:02;;;;;;;11.13;4.80;;;;;;;15.78;72.54;100998.84;5090946;28;20488;-65
2021/08/02 03:44:30;;;;;;;16.75;5.00;;;;;;;15.77;72.76;101004.34;5092596;28;20096;-65
2021/08/02 03:46:57;;;;;;;12.95;4.90;;;;;;;15.79;72.52;101003.19;5091671;28;20051;-65
2021/08/02 03:49:24;;;;;;;19.42;4.55;;;;;;;15.82;71.57;101004.66;5090544;28;20044;-65
2021/08/02 03:51:59;;;;;;;14.23;4.30;;;;;;;15.79;70.84;101005.84;5091369;28;20139;-65
2021/08/02 03:54:29;;;;;;;23.30;5.45;;;;;;;15.84;70.36;101014.16;5091917;28;20040;-65
2021/08/02 03:56:56;;;;;;;14.60;4.50;;;;;;;15.72;70.49;101015.59;5092655;28;20128;-65
2021/08/02 03:59:24;;;;;;;12.45;3.92;;;;;;;15.70;69.66;101018.44;5091984;28;20135;-65
2021/08/02 04:01:51;;;;;;;21.95;4.90;;;;;;;15.57;69.62;101023.53;5092455;28;20063;-65
2021/08/02 04:04:18;;;;;;;18.27;5.13;;;;;;;15.55;70.23;101012.22;5092400;28;20047;-65
2021/08/02 04:06:45;;;;;;;16.63;4.63;;;;;;;15.64;70.41;101021.81;5092466;28;20064;-65
2021/08/02 04:09:12;;;;;;;12.55;4.13;;;;;;;15.71;70.25;101024.59;5091877;28;20040;-65
2021/08/02 04:11:42;;;;;;;18.75;4.47;;;;;;;15.80;69.12;101030.75;5092419;28;20048;-65
2021/08/02 04:14:09;;;;;;;11.73;4.13;;;;;;;15.69;69.92;101032.00;5092495;28;20040;-65
2021/08/02 04:16:36;;;;;;;14.57;3.92;;;;;;;15.75;69.68;101041.97;5092314;28;20064;-65
2021/08/02 04:19:04;;;;;;;13.80;3.95;;;;;;;15.72;69.85;101045.00;5092146;28;20039;-65
2021/08/02 04:21:31;;;;;;;13.27;3.85;;;;;;;15.69;70.21;101042.69;5090337;28;20047;-65
2021/08/02 04:23:58;;;;;;;19.52;4.10;;;;;;;15.71;70.12;101036.13;5091807;28;20101;-65
2021/08/02 04:26:25;;;;;;;18.73;3.75;;;;;;;15.77;69.46;101034.63;5092349;28;20481;-65
2021/08/02 04:28:56;;;;;;;19.42;3.83;;;;;;;15.69;69.42;101026.63;5090975;28;20063;-65
2021/08/02 04:31:25;;;;;;;14.23;3.63;;;;;;;15.71;69.41;101030.78;5091976;28;20381;-65
2021/08/02 04:33:52;;;;;;;17.30;3.88;;;;;;;15.78;69.67;101035.47;5092198;28;20051;-66
2021/08/02 04:36:19;;;;;;;16.33;3.75;;;;;;;15.74;69.35;101033.13;5090721;28;20486;-65
2021/08/02 04:38:46;;;;;;;12.70;3.50;;;;;;;15.74;69.54;101032.31;5090569;28;20069;-66
2021/08/02 04:41:13;;;;;;;20.95;3.42;;;;;;;15.77;68.68;101042.66;5092087;28;20071;-65
2021/08/02 04:43:40;;;;;;;18.65;3.72;;;;;;;15.73;68.91;101044.84;5092480;28;20044;-65
2021/08/02 04:46:07;;;;;;;12.27;3.30;;;;;;;15.76;69.02;101042.84;5090133;28;20130;-65
2021/08/02 04:48:35;;;;;;;14.30;3.67;;;;;;;15.79;68.70;101047.81;5096294;28;20063;-65
2021/08/02 04:51:02;;;;;;;15.13;4.10;;;;;;;15.81;68.43;101045.78;5095763;28;20157;-65
2021/08/02 04:53:28;;;;;;;13.27;3.50;;;;;;;15.79;68.48;101045.97;5095243;28;20040;-65
2021/08/02 04:55:55;;;;;;;15.98;3.50;;;;;;;15.96;67.88;101052.00;5095887;28;20068;-65
2021/08/02 04:58:22;;;;;;;15.98;3.35;;;;;;;15.99;67.03;101056.16;5095581;28;20044;-65
2021/08/02 05:00:49;;;;;;;15.07;3.50;;;;;;;15.92;67.77;101056.88;5093968;28;20036;-65
2021/08/02 05:03:16;;;;;;;15.55;3.20;;;;;;;15.93;67.01;101057.72;5095228;28;20036;-65
2021/08/02 05:05:42;;;;;;;14.40;3.25;;;;;;;15.89;67.60;101051.88;5095639;28;20500;-65
2021/08/02 05:08:09;;;;;;;13.68;3.22;;;;;;;15.87;67.33;101050.41;5095520;28;20043;-65
2021/08/02 05:10:36;;;;;;;13.73;2.95;;;;;;;15.92;66.67;101050.72;5094590;28;20064;-66
2021/08/02 05:13:03;;;;;;;10.45;3.17;;;;;;;15.91;67.25;101047.19;5094887;28;20127;-66
2021/08/02 05:15:30;;;;;;;16.33;3.22;;;;;;;15.89;67.91;101048.38;5095314;28;20044;-66
2021/08/02 05:17:57;;;;;;;15.88;3.63;;;;;;;15.92;67.32;101053.38;5094843;28;20074;-65
2021/08/02 05:20:24;;;;;;;17.85;3.38;;;;;;;15.88;67.10;101052.06;5093460;28;20144;-65
2021/08/02 05:22:52;;;;;;;13.55;3.08;;;;;;;15.79;67.17;101047.81;5094750;28;20076;-65
2021/08/02 05:25:19;;;;;;;13.35;4.07;;;;;;;15.82;67.39;101055.47;5094965;28;20060;-65
2021/08/02 05:27:49;;;;;;;12.63;2.97;;;;;;;15.78;67.37;101052.31;5093582;28;20050;-66
2021/08/02 05:30:17;;;;;;;14.75;3.10;;;;;;;15.73;66.60;101046.66;5094876;28;20119;-65
2021/08/02 05:32:44;;;;;;;13.90;3.20;;;;;;;15.91;66.98;101055.22;5095016;28;20058;-65
2021/08/02 05:35:12;;;;;;;9.93;3.05;;;;;;;15.90;66.68;101064.25;5093315;28;20527;-65
2021/08/02 05:37:39;;;;;;;11.23;2.90;;;;;;;15.92;66.72;101064.91;5094998;28;20050;-65
2021/08/02 05:40:08;;;;;;;13.07;2.88;;;;;;;16.06;66.00;101063.28;5094605;28;20047;-65
2021/08/02 05:42:35;;;;;;;8.27;3.03;;;;;;;15.93;66.51;101071.09;5094774;28;20036;-65
2021/08/02 05:45:05;;;;;;;11.68;3.00;;;;;;;15.93;67.67;101058.56;5094561;28;20127;-65
2021/08/02 05:47:32;;;;;;;12.00;2.70;;;;;;;15.94;67.09;101070.09;5094864;28;20048;-65
2021/08/02 05:49:59;;;;;;;15.30;3.13;;;;;;;16.05;66.77;101069.63;5094718;28;20130;-65
2021/08/02 05:52:28;;;;;;;9.80;3.10;;;;;;;16.06;67.18;101070.47;5094548;28;20074;-66
2021/08/02 05:54:55;;;;;;;18.60;3.17;;;;;;;16.09;66.82;101073.59;5094565;28;20056;-65
2021/08/02 05:57:22;;;;;;;11.68;2.72;;;;;;;16.18;65.88;101074.34;5093885;28;20101;-65
2021/08/02 05:59:49;;;;;;;11.60;3.00;;;;;;;16.12;65.69;101078.59;5093798;28;20522;-65
2021/08/02 06:02:16;;;;;;;8.98;2.75;;;;;;;16.10;64.70;101075.28;5094453;28;20036;-65
2021/08/02 06:04:46;;;;;;;14.63;3.00;;;;;;;16.06;65.17;101076.66;5092856;28;20424;-65
2021/08/02 06:07:13;;;;;;;13.95;2.60;;;;;;;16.13;65.63;101071.41;5093169;28;20054;-65
2021/08/02 06:09:40;;;;;;;11.52;2.70;;;;;;;16.06;65.11;101073.13;5094118;28;20135;-65
2021/08/02 06:12:09;;;;;;;11.48;2.90;;;;;;;16.22;63.64;101078.31;5092728;28;20032;-66
2021/08/02 06:14:36;;;;;;;15.38;3.00;;;;;;;16.07;64.02;101081.00;5094430;28;20036;-66
2021/08/02 06:17:03;;;;;;;11.13;3.00;;;;;;;16.01;64.73;101072.84;5094385;28;20042;-65
2021/08/02 06:19:30;;;;;;;10.05;2.70;;;;;;;16.12;64.49;101077.78;5092674;28;20055;-65
2021/08/02 06:21:56;;;;;;;13.10;2.70;;;;;;;16.08;65.48;101084.50;5094193;28;20036;-65
2021/08/02 06:24:23;;;;;;;13.25;2.78;;;;;;;16.11;65.60;101070.75;5092400;28;20040;-65
2021/08/02 06:26:50;;;;;;;12.55;3.22;;;;;;;16.16;65.39;101086.28;5092456;28;20074;-65
2021/08/02 06:29:17;;;;;;;13.38;2.80;;;;;;;16.19;64.71;101083.22;5092831;28;20043;-65
2021/08/02 06:31:43;;;;;;;14.90;2.83;;;;;;;16.12;64.97;101080.47;5094063;28;20040;-65
2021/08/02 06:34:11;;;;;;;13.35;2.92;;;;;;;16.22;64.07;101090.88;5090739;28;20055;-65
2021/08/02 06:36:37;;;;;;;14.98;3.08;;;;;;;16.36;63.45;101098.09;5092847;28;20044;-65
2021/08/02 06:39:04;;;;;;;12.25;3.25;;;;;;;16.38;64.03;101096.06;5092023;28;20142;-65
2021/08/02 06:41:31;;;;;;;18.20;3.35;;;;;;;16.42;64.61;101089.31;5093520;28;20044;-65
2021/08/02 06:43:58;;;;;;;11.52;3.33;;;;;;;16.47;64.69;101097.63;5093542;28;20044;-65
2021/08/02 06:46:24;;;;;;;11.48;3.03;;;;;;;16.43;65.55;101099.03;5092433;28;20518;-65
2021/08/02 06:48:51;;;;;;;15.98;3.30;;;;;;;16.40;64.98;101104.75;5093324;28;20044;-65
2021/08/02 06:51:19;;;;;;;15.95;3.20;;;;;;;16.38;64.51;101105.97;5094198;28;20040;-66
2021/08/02 06:53:46;;;;;;;12.50;3.17;;;;;;;16.49;65.30;101100.97;5089436;28;20063;-65
2021/08/02 06:56:13;;;;;;;11.23;3.30;;;;;;;16.40;63.78;101103.94;5118945;27;20055;-65
2021/08/02 06:58:39;;;;;;;14.88;3.13;;;;;;;16.30;63.71;101113.06;5092759;28;20044;-66
2021/08/02 07:01:06;;;;;;;9.88;2.72;;;;;;;16.29;64.09;101116.72;5093351;28;20488;-66
2021/08/02 07:03:33;;;;;;;10.07;2.75;;;;;;;16.35;64.08;101115.16;5091407;28;20500;-66
2021/08/02 07:06:00;;;;;;;19.40;2.55;;;;;;;16.31;63.91;101111.19;5092189;28;20040;-65
2021/08/02 07:08:27;;;;;;;15.98;2.95;;;;;;;16.35;64.07;101115.16;5091014;28;20051;-65
2021/08/02 07:10:54;;;;;;;12.48;3.17;;;;;;;16.29;63.95;101116.72;5091696;28;20046;-65
2021/08/02 07:13:21;;;;;;;10.68;3.13;;;;;;;16.46;64.06;101111.22;5091938;28;20502;-65
2021/08/02 07:15:48;;;;;;;11.93;3.00;;;;;;;16.50;62.67;101121.38;5093156;28;20044;-65
2021/08/02 07:18:15;;;;;;;11.00;2.70;;;;;;;16.66;62.79;101124.88;5091638;28;20115;-65
2021/08/02 07:20:41;;;;;;;14.57;3.33;;;;;;;16.54;61.58;101129.06;5091366;28;20068;-65
2021/08/02 07:23:08;;;;;;;12.25;3.63;;;;;;;16.66;62.40;101119.53;5092944;28;20439;-70
2021/08/02 07:25:35;;;;;;;14.40;3.40;;;;;;;16.68;62.84;101121.03;5092278;28;20104;-67
2021/08/02 07:28:02;;;;;;;15.15;4.10;;;;;;;16.80;63.35;101128.59;5074943;28;20058;-67
2021/08/02 07:30:29;;;;;;;16.42;3.10;;;;;;;16.74;62.73;101129.34;5091245;28;20091;-66
2021/08/02 07:32:56;;;;;;;12.77;3.60;;;;;;;16.77;65.41;101127.13;5092812;28;20043;-67
2021/08/02 07:35:22;;;;;;;15.32;4.50;;;;;;;16.85;65.41;101128.91;5092333;28;20543;-67
2021/08/02 07:37:49;;;;;;;17.10;4.00;;;;;;;16.76;65.19;101133.47;5092492;28;20123;-67
2021/08/02 07:40:16;;;;;;;14.27;4.07;;;;;;;16.75;66.09;101137.16;5092366;28;20515;-67
2021/08/02 07:42:43;;;;;;;16.02;3.72;;;;;;;16.86;65.24;101131.41;5076248;28;20133;-68
2021/08/02 07:45:10;;;;;;;14.10;3.80;;;;;;;16.73;65.29;101133.03;5102616;28;20040;-67
2021/08/02 07:47:37;;;;;;;17.95;3.85;;;;;;;16.77;64.58;101127.13;5074968;28;20044;-67
2021/08/02 07:50:06;;;;;;;15.13;3.58;;;;;;;16.93;64.01;101133.31;5088093;28;20044;-67
2021/08/02 07:52:33;;;;;;;16.92;3.50;;;;;;;16.92;63.35;101131.66;5089952;28;20057;-67
2021/08/02 07:55:01;;;;;;;20.35;3.85;;;;;;;16.81;64.77;101130.25;5089665;28;20044;-67
2021/08/02 07:57:30;;;;;;;16.25;3.78;;;;;;;16.77;65.63;101123.59;5090074;28;20127;-67
2021/08/02 07:59:57;;;;;;;14.27;3.80;;;;;;;16.84;64.09;101130.72;5087591;28;20050;-66
2021/08/02 08:02:23;;;;;;;23.17;4.07;;;;;;;16.88;64.90;101129.34;5089407;28;20061;-66
2021/08/02 08:04:50;;;;;;;18.45;3.92;;;;;;;16.86;62.81;101139.44;5087965;28;20163;-66
2021/08/02 08:07:17;;;;;;;18.98;4.57;;;;;;;16.87;62.39;101130.34;5088851;28;20075;-66
2021/08/02 08:09:44;;;;;;;17.08;4.57;;;;;;;16.75;64.44;101133.66;5089466;28;20485;-66
2021/08/02 08:12:10;;;;;;;14.50;3.90;;;;;;;16.69;64.66;101127.19;5089783;28;20088;-66
2021/08/02 08:14:37;;;;;;;17.30;4.03;;;;;;;16.62;64.37;101129.78;5088317;28;20060;-66
2021/08/02 08:17:04;;;;;;;17.27;4.05;;;;;;;16.48;63.80;101133.28;5088184;28;20036;-66
2021/08/02 08:19:31;;;;;;;16.35;4.43;;;;;;;16.57;64.74;101136.72;5089487;28;20036;-66
2021/08/02 08:21:58;;;;;;;17.27;4.63;;;;;;;16.59;65.92;101137.34;5091268;28;20085;-66
2021/08/02 08:24:25;;;;;;;16.08;4.88;;;;;;;16.52;66.18;101139.94;5071482;28;20071;-66
2021/08/02 08:26:52;;;;;;;16.05;5.43;;;;;;;16.49;65.96;101127.75;5072255;28;20044;-67
2021/08/02 08:29:19;;;;;;;14.30;3.97;;;;;;;16.54;65.36;101129.88;5073167;28;20048;-66
2021/08/02 08:31:48;;;;;;;14.32;3.50;;;;;;;16.58;64.91;101127.66;5078847;28;20040;-66
2021/08/02 08:34:15;;;;;;;12.35;3.50;;;;;;;16.47;64.39;101132.44;5092544;28;20094;-66
2021/08/02 08:36:42;;;;;;;14.85;3.28;;;;;;;16.39;64.31;101134.38;5092261;28;20457;-67
2021/08/02 08:39:08;;;;;;;16.02;3.58;;;;;;;16.41;65.65;101135.03;5089020;28;20561;-67
2021/08/02 08:41:35;;;;;;;10.07;3.15;;;;;;;16.40;65.58;101130.69;5077520;28;20043;-67
2021/08/02 08:44:02;;;;;;;17.08;3.35;;;;;;;16.50;64.40;101139.31;5079163;28;20048;-67
2021/08/02 08:46:29;;;;;;;13.55;2.67;;;;;;;16.48;63.69;101136.81;5093855;28;20055;-66
2021/08/02 08:48:56;;;;;;;12.45;3.05;;;;;;;16.57;63.77;101145.59;5091969;28;20040;-67
2021/08/02 08:51:23;;;;;;;11.07;2.92;;;;;;;16.62;62.15;101140.50;5092426;28;20047;-66
2021/08/02 08:53:52;;;;;;;14.55;3.28;;;;;;;16.66;63.76;101144.50;5093263;28;20075;-67
2021/08/02 08:56:19;;;;;;;12.40;3.40;;;;;;;16.76;63.03;101141.53;5092106;28;20066;-67
2021/08/02 08:58:46;;;;;;;14.40;3.30;;;;;;;16.76;62.52;101146.06;5074582;28;20067;-67
2021/08/02 09:01:13;;;;;;;12.48;3.20;;;;;;;16.74;63.14;101146.25;5093283;28;20043;-67
2021/08/02 09:03:57;;;;;;;11.05;3.05;;;;;;;16.69;62.87;101143.28;5073657;28;20172;-67
2021/08/02 09:06:25;;;;;;;14.70;3.30;;;;;;;16.76;62.81;101154.09;5093169;28;20051;-68
2021/08/02 09:08:52;;;;;;;14.50;3.30;;;;;;;16.98;63.06;101155.84;5093219;28;20047;-68
2021/08/02 09:11:21;;;;;;;14.38;4.43;;;;;;;17.16;61.35;101149.28;5092700;28;20063;-68
2021/08/02 09:13:49;;;;;;;11.23;3.03;;;;;;;17.10;63.56;101156.22;5087419;28;20044;-68
2021/08/02 09:16:21;;;;;;;14.20;3.88;;;;;;;17.12;63.73;101148.81;5081727;28;20044;-66
2021/08/02 09:19:04;;;;;;;14.13;4.50;;;;;;;16.98;63.96;101152.34;5085699;28;20044;-67
2021/08/02 09:21:50;;;;;;;15.55;4.88;;;;;;;17.11;63.95;101149.84;5084174;28;20039;-68
2021/08/02 09:24:35;;;;;;;19.52;5.00;;;;;;;17.17;63.82;101153.59;5091392;28;20082;-67
2021/08/02 09:27:03;;;;;;;13.65;4.68;;;;;;;17.13;64.58;101150.47;5093681;28;20111;-66
2021/08/02 09:29:34;;;;;;;13.27;5.00;;;;;;;16.81;65.14;101159.72;5092915;28;20408;-66
2021/08/02 09:32:08;;;;;;;14.88;4.85;;;;;;;16.70;66.39;101156.50;5105915;28;20039;-67
2021/08/02 09:34:45;;;;;;;16.38;4.13;;;;;;;16.49;67.17;101148.34;5090808;28;20043;-65
2021/08/02 09:37:21;;;;;;;13.00;4.10;;;;;;;16.44;67.10;101156.91;5094194;28;20083;-67
2021/08/02 09:39:48;;;;;;;17.25;4.30;;;;;;;16.40;66.79;101154.78;5108864;28;20522;-66
2021/08/02 09:42:14;;;;;;;18.50;4.20;;;;;;;16.36;67.01;101157.00;5094785;28;20709;-66
2021/08/02 09:45:02;;;;;;;14.00;3.97;;;;;;;16.30;66.64;101158.56;5098367;28;20044;-65
2021/08/02 09:47:30;;;;;;;20.55;4.47;;;;;;;16.37;66.80;101156.00;5062247;28;20048;-65
2021/08/02 09:49:57;;;;;;;17.08;4.53;;;;;;;16.31;66.60;101160.22;5120838;27;20446;-65
2021/08/02 09:52:24;;;;;;;13.55;3.35;;;;;;;16.35;66.77;101160.69;5085381;28;20037;-64
2021/08/02 09:55:06;;;;;;;20.17;6.70;;;;;;;16.31;66.25;101159.38;5087380;28;20468;-64
2021/08/02 09:57:34;;;;;;;12.77;3.50;;;;;;;16.36;64.71;101156.19;5109497;28;20054;-64
2021/08/02 10:00:01;;;;;;;11.52;3.40;;;;;;;16.50;64.11;101150.84;5093119;28;20066;-65
2021/08/02 10:02:51;;;;;;;13.00;3.42;;;;;;;16.71;63.75;101154.63;5119185;27;20392;-63
2021/08/02 10:05:20;;;;;;;10.35;3.25;;;;;;;16.69;64.20;101149.44;5088399;28;20046;-65
2021/08/02 10:07:48;;;;;;;11.75;3.60;;;;;;;16.92;64.27;101163.78;5108236;28;20130;-65
2021/08/02 10:10:17;;;;;;;13.02;3.08;;;;;;;17.11;61.59;101160.56;5105287;28;20040;-65
2021/08/02 10:12:46;;;;;;;13.07;3.28;;;;;;;17.02;61.54;101162.50;5109227;28;20467;-64
2021/08/02 10:15:19;;;;;;;11.82;3.33;;;;;;;16.89;60.03;101159.66;5116311;27;20040;-63
2021/08/02 10:17:49;;;;;;;12.57;3.28;;;;;;;16.90;59.93;101166.69;5094590;28;20040;-64
2021/08/02 10:20:25;;;;;;;12.55;3.22;;;;;;;16.85;60.15;101163.72;5127731;27;20167;-63
2021/08/02 10:22:53;;;;;;;10.50;3.22;;;;;;;16.81;60.85;101163.22;5116660;28;20043;-63
2021/08/02 10:25:40;;;;;;;12.95;3.30;;;;;;;16.69;62.10;101159.34;5107397;28;20043;-64
2021/08/02 10:28:12;;;;;;;11.20;3.40;;;;;;;16.92;61.02;101166.47;5099648;28;20042;-68
2021/08/02 10:30:40;;;;;;;9.73;3.00;;;;;;;16.98;60.35;101163.91;5117783;27;20064;-65
2021/08/02 10:33:08;;;;;;;9.43;3.20;;;;;;;17.00;60.80;101171.75;5112920;27;20404;-66
2021/08/02 10:35:45;;;;;;;11.38;3.22;;;;;;;16.98;60.18;101169.25;5125555;28;20074;-66
2021/08/02 10:38:15;;;;;;;12.88;3.03;;;;;;;17.12;59.79;101167.59;5094833;28;20575;-66
2021/08/02 10:40:47;;;;;;;13.02;3.10;;;;;;;17.02;61.06;101162.50;5116630;28;20101;-68
2021/08/02 10:43:32;;;;;;;10.15;2.97;;;;;;;17.04;59.56;101163.13;5113467;27;20071;-69
2021/08/02 10:46:01;;;;;;;18.33;3.22;;;;;;;17.12;60.18;101164.91;5080714;28;20127;-67
2021/08/02 10:48:30;;;;;;;11.73;2.95;;;;;;;17.17;60.13;101167.00;5118106;28;20504;-68
2021/08/02 10:51:10;;;;;;;11.50;3.03;;;;;;;17.54;56.61;101168.69;5111155;28;20178;-67
2021/08/02 10:53:37;;;;;;;10.00;2.88;;;;;;;17.39;58.48;101168.75;5110125;28;20044;-69
2021/08/02 10:56:04;;;;;;;14.30;3.28;;;;;;;17.33;59.16;101168.66;5107989;28;20054;-67
2021/08/02 10:58:36;;;;;;;14.30;3.25;;;;;;;17.16;59.57;101166.19;5117017;28;20059;-68
2021/08/02 11:01:05;;;;;;;17.05;3.80;;;;;;;17.16;58.86;101165.38;5112716;27;20035;-68
2021/08/02 11:03:42;;;;;;;15.77;3.22;;;;;;;17.23;58.58;101164.44;5124792;28;20451;-68
2021/08/02 11:06:16;;;;;;;15.23;3.92;;;;;;;17.33;59.35;101163.28;5109044;28;20063;-68
2021/08/02 11:08:54;;;;;;;14.50;4.18;;;;;;;17.33;59.04;101150.72;5107512;28;20071;-68
2021/08/02 11:11:31;;;;;;;12.30;4.45;;;;;;;17.27;58.68;101148.78;5124547;28;20046;-67
2021/08/02 11:14:20;;;;;;;15.32;4.15;;;;;;;17.01;60.16;101150.13;5096297;28;20048;-69
2021/08/02 11:16:49;;;;;;;12.82;4.05;;;;;;;17.12;61.42;101150.66;5103482;28;20048;-68
2021/08/02 11:19:22;;;;;;;14.63;4.30;;;;;;;17.11;60.59;101144.47;5091927;28;20043;-69
2021/08/02 11:24:38;;;;;;;26.55;10.68;;;;;;;17.56;59.96;101155.09;5098075;27;20377;-69
2021/08/02 11:27:10;;;;;;;14.00;4.53;;;;;;;17.50;60.45;101154.03;5095012;28;20037;-69
2021/08/02 11:29:37;;;;;;;9.27;3.95;;;;;;;17.51;59.24;101152.16;5105607;28;20054;-70
2021/08/02 11:32:10;;;;;;;12.27;3.80;;;;;;;17.75;58.53;101148.28;5091436;28;20549;-70